sensor_id;sensor_type;location;lat;lon;timestamp;temperature;humidity
53782;DHT22;39692;53.114;7.060;2022-08-03T00:01:42;19.50;99.90
53782;DHT22;39692;53.114;7.060;2022-08-03T00:04:09;19.50;99.90
53782;DHT22;39692;53.114;7.060;2022-08-03T00:06:36;19.50;99.90
53782;DHT22;39692;53.114;7.060;2022-08-03T00:09:02;19.50;99.90
53782;DHT22;39692;53.114;7.060;2022-08-03T00:11:28;19.50;99.90
53782;DHT22;39692;53.114;7.060;2022-08-03T00:13:54;19.40;99.90
53782;DHT22;39692;53.114;7.060;2022-08-03T00:16:19;19.40;99.90
53782;DHT22;39692;53.114;7.060;2022-08-03T00:18:45;19.40;99.90
53782;DHT22;39692;53.114;7.060;2022-08-03T00:21:11;19.40;99.90
53782;DHT22;39692;53.114;7.060;2022-08-03T00:23:37;19.50;99.90
53782;DHT22;39692;53.114;7.060;2022-08-03T00:26:03;19.50;99.90
53782;DHT22;39692;53.114;7.060;2022-08-03T00:28:28;19.60;99.90
53782;DHT22;39692;53.114;7.060;2022-08-03T00:30:54;19.50;99.90
53782;DHT22;39692;53.114;7.060;2022-08-03T00:33:21;19.50;99.90
53782;DHT22;39692;53.114;7.060;2022-08-03T00:35:47;19.50;99.90
53782;DHT22;39692;53.114;7.060;2022-08-03T00:38:13;19.50;99.90
53782;DHT22;39692;53.114;7.060;2022-08-03T00:40:39;19.50;99.90
53782;DHT22;39692;53.114;7.060;2022-08-03T00:43:06;19.50;99.90
53782;DHT22;39692;53.114;7.060;2022-08-03T00:45:34;19.50;99.90
53782;DHT22;39692;53.114;7.060;2022-08-03T00:48:00;19.40;99.90
53782;DHT22;39692;53.114;7.060;2022-08-03T00:50:29;19.40;99.90
53782;DHT22;39692;53.114;7.060;2022-08-03T00:52:57;19.40;99.90
53782;DHT22;39692;53.114;7.060;2022-08-03T00:55:23;19.40;99.90
53782;DHT22;39692;53.114;7.060;2022-08-03T00:57:50;19.40;99.90
53782;DHT22;39692;53.114;7.060;2022-08-03T01:00:18;19.40;99.90
53782;DHT22;39692;53.114;7.060;2022-08-03T01:02:45;19.40;99.90
53782;DHT22;39692;53.114;7.060;2022-08-03T01:05:11;19.30;99.90
53782;DHT22;39692;53.114;7.060;2022-08-03T01:10:38;19.20;99.90
53782;DHT22;39692;53.114;7.060;2022-08-03T01:15:49;19.30;99.90
53782;DHT22;39692;53.114;7.060;2022-08-03T01:18:35;19.30;99.90
53782;DHT22;39692;53.114;7.060;2022-08-03T01:21:06;19.30;99.90
53782;DHT22;39692;53.114;7.060;2022-08-03T01:23:49;19.30;99.90
53782;DHT22;39692;53.114;7.060;2022-08-03T01:32:20;19.20;99.90
53782;DHT22;39692;53.114;7.060;2022-08-03T01:34:50;19.10;99.90
53782;DHT22;39692;53.114;7.060;2022-08-03T01:37:23;19.10;99.90
53782;DHT22;39692;53.114;7.060;2022-08-03T01:39:54;19.00;99.90
53782;DHT22;39692;53.114;7.060;2022-08-03T01:42:20;19.00;99.90
53782;DHT22;39692;53.114;7.060;2022-08-03T01:44:48;18.90;99.90
53782;DHT22;39692;53.114;7.060;2022-08-03T01:47:19;18.90;99.90
53782;DHT22;39692;53.114;7.060;2022-08-03T01:49:45;18.90;99.90
53782;DHT22;39692;53.114;7.060;2022-08-03T01:52:14;18.90;99.90
53782;DHT22;39692;53.114;7.060;2022-08-03T01:54:44;18.90;99.90
53782;DHT22;39692;53.114;7.060;2022-08-03T01:57:12;18.90;99.90
53782;DHT22;39692;53.114;7.060;2022-08-03T01:59:39;18.90;99.90
53782;DHT22;39692;53.114;7.060;2022-08-03T02:02:06;18.90;99.90
53782;DHT22;39692;53.114;7.060;2022-08-03T02:04:34;19.00;99.90
53782;DHT22;39692;53.114;7.060;2022-08-03T02:07:01;18.90;99.90
53782;DHT22;39692;53.114;7.060;2022-08-03T02:09:29;18.90;99.90
53782;DHT22;39692;53.114;7.060;2022-08-03T02:11:56;18.90;99.90
53782;DHT22;39692;53.114;7.060;2022-08-03T02:14:23;18.90;99.90
53782;DHT22;39692;53.114;7.060;2022-08-03T02:16:50;18.80;99.90
53782;DHT22;39692;53.114;7.060;2022-08-03T02:19:17;18.70;99.90
53782;DHT22;39692;53.114;7.060;2022-08-03T02:21:44;18.60;99.90
53782;DHT22;39692;53.114;7.060;2022-08-03T02:24:11;18.50;99.90
53782;DHT22;39692;53.114;7.060;2022-08-03T02:26:38;18.40;99.90
53782;DHT22;39692;53.114;7.060;2022-08-03T02:29:11;18.40;99.90
53782;DHT22;39692;53.114;7.060;2022-08-03T02:31:38;18.40;99.90
53782;DHT22;39692;53.114;7.060;2022-08-03T02:34:10;18.40;99.90
53782;DHT22;39692;53.114;7.060;2022-08-03T02:36:38;18.40;99.90
53782;DHT22;39692;53.114;7.060;2022-08-03T02:39:05;18.40;99.90
53782;DHT22;39692;53.114;7.060;2022-08-03T02:41:36;18.50;99.90
53782;DHT22;39692;53.114;7.060;2022-08-03T02:44:07;18.60;99.90
53782;DHT22;39692;53.114;7.060;2022-08-03T02:46:40;18.70;99.90
53782;DHT22;39692;53.114;7.060;2022-08-03T02:49:07;18.70;99.90
53782;DHT22;39692;53.114;7.060;2022-08-03T02:51:35;18.80;99.90
53782;DHT22;39692;53.114;7.060;2022-08-03T02:54:03;18.80;99.90
53782;DHT22;39692;53.114;7.060;2022-08-03T02:56:29;18.90;99.90
53782;DHT22;39692;53.114;7.060;2022-08-03T02:58:57;18.80;99.90
53782;DHT22;39692;53.114;7.060;2022-08-03T03:01:24;18.80;99.90
53782;DHT22;39692;53.114;7.060;2022-08-03T03:03:52;18.80;99.90
53782;DHT22;39692;53.114;7.060;2022-08-03T03:06:20;18.80;99.90
53782;DHT22;39692;53.114;7.060;2022-08-03T03:08:47;18.80;99.90
53782;DHT22;39692;53.114;7.060;2022-08-03T03:11:14;18.80;99.90
53782;DHT22;39692;53.114;7.060;2022-08-03T03:13:42;18.80;99.90
53782;DHT22;39692;53.114;7.060;2022-08-03T03:16:11;18.80;99.90
53782;DHT22;39692;53.114;7.060;2022-08-03T03:18:37;18.80;99.90
53782;DHT22;39692;53.114;7.060;2022-08-03T03:21:04;18.80;99.90
53782;DHT22;39692;53.114;7.060;2022-08-03T03:23:37;18.80;99.90
53782;DHT22;39692;53.114;7.060;2022-08-03T03:26:04;18.80;99.90
53782;DHT22;39692;53.114;7.060;2022-08-03T03:28:31;18.80;99.90
53782;DHT22;39692;53.114;7.060;2022-08-03T03:30:57;18.80;99.90
53782;DHT22;39692;53.114;7.060;2022-08-03T03:33:23;18.80;99.90
53782;DHT22;39692;53.114;7.060;2022-08-03T03:35:49;18.80;99.90
53782;DHT22;39692;53.114;7.060;2022-08-03T03:38:16;18.80;99.90
53782;DHT22;39692;53.114;7.060;2022-08-03T03:40:42;18.80;99.90
53782;DHT22;39692;53.114;7.060;2022-08-03T03:43:10;18.80;99.90
53782;DHT22;39692;53.114;7.060;2022-08-03T03:45:36;18.80;99.90
53782;DHT22;39692;53.114;7.060;2022-08-03T03:48:05;18.80;99.90
53782;DHT22;39692;53.114;7.060;2022-08-03T03:50:33;18.70;99.90
53782;DHT22;39692;53.114;7.060;2022-08-03T03:52:59;18.70;99.90
53782;DHT22;39692;53.114;7.060;2022-08-03T03:55:25;18.70;99.90
53782;DHT22;39692;53.114;7.060;2022-08-03T03:57:51;18.70;99.90
53782;DHT22;39692;53.114;7.060;2022-08-03T04:00:17;18.70;99.90
53782;DHT22;39692;53.114;7.060;2022-08-03T04:02:44;18.70;99.90
53782;DHT22;39692;53.114;7.060;2022-08-03T04:05:10;18.70;99.90
53782;DHT22;39692;53.114;7.060;2022-08-03T04:07:58;18.70;99.90
53782;DHT22;39692;53.114;7.060;2022-08-03T04:10:53;18.70;99.90
53782;DHT22;39692;53.114;7.060;2022-08-03T04:16:24;18.70;99.90
53782;DHT22;39692;53.114;7.060;2022-08-03T04:19:09;18.70;99.90
53782;DHT22;39692;53.114;7.060;2022-08-03T04:21:43;18.80;99.90
53782;DHT22;39692;53.114;7.060;2022-08-03T04:24:12;18.80;99.90
53782;DHT22;39692;53.114;7.060;2022-08-03T04:26:41;18.80;99.90
53782;DHT22;39692;53.114;7.060;2022-08-03T04:29:08;18.90;99.90
53782;DHT22;39692;53.114;7.060;2022-08-03T04:31:35;18.90;99.90
53782;DHT22;39692;53.114;7.060;2022-08-03T04:34:03;18.90;99.90
53782;DHT22;39692;53.114;7.060;2022-08-03T04:36:32;19.00;99.90
53782;DHT22;39692;53.114;7.060;2022-08-03T04:39:03;19.10;99.90
53782;DHT22;39692;53.114;7.060;2022-08-03T04:41:30;19.10;99.90
53782;DHT22;39692;53.114;7.060;2022-08-03T04:43:58;19.10;99.90
53782;DHT22;39692;53.114;7.060;2022-08-03T04:46:38;19.20;99.90
53782;DHT22;39692;53.114;7.060;2022-08-03T04:49:05;19.20;99.90
53782;DHT22;39692;53.114;7.060;2022-08-03T04:51:31;19.10;99.90
53782;DHT22;39692;53.114;7.060;2022-08-03T04:53:59;19.10;99.90
53782;DHT22;39692;53.114;7.060;2022-08-03T04:56:25;19.10;99.90
53782;DHT22;39692;53.114;7.060;2022-08-03T04:58:51;19.10;99.90
53782;DHT22;39692;53.114;7.060;2022-08-03T05:01:18;19.00;99.90
53782;DHT22;39692;53.114;7.060;2022-08-03T05:03:45;19.00;99.90
53782;DHT22;39692;53.114;7.060;2022-08-03T05:06:11;19.00;99.90
53782;DHT22;39692;53.114;7.060;2022-08-03T05:08:38;19.00;99.90
53782;DHT22;39692;53.114;7.060;2022-08-03T05:11:03;19.10;99.90
53782;DHT22;39692;53.114;7.060;2022-08-03T05:13:29;19.10;99.90
53782;DHT22;39692;53.114;7.060;2022-08-03T05:15:55;19.10;99.90
53782;DHT22;39692;53.114;7.060;2022-08-03T05:18:21;19.20;99.90
53782;DHT22;39692;53.114;7.060;2022-08-03T05:20:46;19.30;99.90
53782;DHT22;39692;53.114;7.060;2022-08-03T05:23:12;19.40;99.90
53782;DHT22;39692;53.114;7.060;2022-08-03T05:25:38;19.50;99.90
53782;DHT22;39692;53.114;7.060;2022-08-03T05:28:03;19.60;99.90
53782;DHT22;39692;53.114;7.060;2022-08-03T05:30:29;19.60;99.90
53782;DHT22;39692;53.114;7.060;2022-08-03T05:32:55;19.70;99.90
53782;DHT22;39692;53.114;7.060;2022-08-03T05:35:21;19.80;99.90
53782;DHT22;39692;53.114;7.060;2022-08-03T05:37:46;19.80;99.90
53782;DHT22;39692;53.114;7.060;2022-08-03T05:40:12;19.90;99.90
53782;DHT22;39692;53.114;7.060;2022-08-03T05:42:39;20.10;99.90
53782;DHT22;39692;53.114;7.060;2022-08-03T05:45:13;20.20;99.90
53782;DHT22;39692;53.114;7.060;2022-08-03T05:47:42;20.40;99.90
53782;DHT22;39692;53.114;7.060;2022-08-03T05:50:10;20.60;99.90
53782;DHT22;39692;53.114;7.060;2022-08-03T05:52:36;20.70;99.90
53782;DHT22;39692;53.114;7.060;2022-08-03T05:55:04;20.80;99.90
53782;DHT22;39692;53.114;7.060;2022-08-03T05:57:30;20.90;99.90
53782;DHT22;39692;53.114;7.060;2022-08-03T05:59:55;21.00;99.90
53782;DHT22;39692;53.114;7.060;2022-08-03T06:02:21;21.00;99.90
53782;DHT22;39692;53.114;7.060;2022-08-03T06:04:47;21.10;99.90
53782;DHT22;39692;53.114;7.060;2022-08-03T06:07:12;21.10;99.90
53782;DHT22;39692;53.114;7.060;2022-08-03T06:09:38;21.10;99.90
53782;DHT22;39692;53.114;7.060;2022-08-03T06:12:06;21.20;99.90
53782;DHT22;39692;53.114;7.060;2022-08-03T06:14:31;21.20;99.90
53782;DHT22;39692;53.114;7.060;2022-08-03T06:16:57;21.20;99.90
53782;DHT22;39692;53.114;7.060;2022-08-03T06:19:23;21.30;99.90
53782;DHT22;39692;53.114;7.060;2022-08-03T06:21:49;21.30;99.90
53782;DHT22;39692;53.114;7.060;2022-08-03T06:24:14;21.40;99.90
53782;DHT22;39692;53.114;7.060;2022-08-03T06:26:41;21.60;99.90
53782;DHT22;39692;53.114;7.060;2022-08-03T06:29:06;21.80;99.90
53782;DHT22;39692;53.114;7.060;2022-08-03T06:31:32;22.10;99.90
53782;DHT22;39692;53.114;7.060;2022-08-03T06:33:58;22.20;99.90
53782;DHT22;39692;53.114;7.060;2022-08-03T06:36:23;22.20;99.90
53782;DHT22;39692;53.114;7.060;2022-08-03T06:38:56;22.30;99.90
53782;DHT22;39692;53.114;7.060;2022-08-03T06:41:22;22.30;99.90
53782;DHT22;39692;53.114;7.060;2022-08-03T06:43:48;22.40;99.90
53782;DHT22;39692;53.114;7.060;2022-08-03T06:46:14;22.60;99.90
53782;DHT22;39692;53.114;7.060;2022-08-03T06:48:40;22.80;99.90
53782;DHT22;39692;53.114;7.060;2022-08-03T06:51:06;22.90;99.90
53782;DHT22;39692;53.114;7.060;2022-08-03T06:53:32;22.90;99.90
53782;DHT22;39692;53.114;7.060;2022-08-03T06:55:58;22.90;99.90
53782;DHT22;39692;53.114;7.060;2022-08-03T06:58:23;22.80;99.90
53782;DHT22;39692;53.114;7.060;2022-08-03T07:00:49;23.00;99.90
53782;DHT22;39692;53.114;7.060;2022-08-03T07:03:15;23.00;99.90
53782;DHT22;39692;53.114;7.060;2022-08-03T07:05:42;23.20;99.90
53782;DHT22;39692;53.114;7.060;2022-08-03T07:08:08;23.30;99.90
53782;DHT22;39692;53.114;7.060;2022-08-03T07:10:34;23.60;99.90
53782;DHT22;39692;53.114;7.060;2022-08-03T07:13:00;24.00;99.90
53782;DHT22;39692;53.114;7.060;2022-08-03T07:15:26;24.30;99.90
53782;DHT22;39692;53.114;7.060;2022-08-03T07:17:51;24.40;99.90
53782;DHT22;39692;53.114;7.060;2022-08-03T07:20:17;24.60;99.90
53782;DHT22;39692;53.114;7.060;2022-08-03T07:22:44;24.70;99.90
53782;DHT22;39692;53.114;7.060;2022-08-03T07:25:10;24.60;99.90
53782;DHT22;39692;53.114;7.060;2022-08-03T07:27:36;24.70;99.90
53782;DHT22;39692;53.114;7.060;2022-08-03T07:30:05;25.10;99.90
53782;DHT22;39692;53.114;7.060;2022-08-03T07:32:32;25.80;99.90
53782;DHT22;39692;53.114;7.060;2022-08-03T07:34:57;26.50;99.90
53782;DHT22;39692;53.114;7.060;2022-08-03T07:37:23;27.40;99.90
53782;DHT22;39692;53.114;7.060;2022-08-03T07:39:49;28.10;99.90
53782;DHT22;39692;53.114;7.060;2022-08-03T07:42:14;28.60;99.90
53782;DHT22;39692;53.114;7.060;2022-08-03T07:44:40;28.90;99.90
53782;DHT22;39692;53.114;7.060;2022-08-03T07:47:06;29.30;99.00
53782;DHT22;39692;53.114;7.060;2022-08-03T07:49:31;29.70;97.30
53782;DHT22;39692;53.114;7.060;2022-08-03T07:51:57;30.10;95.70
53782;DHT22;39692;53.114;7.060;2022-08-03T07:54:41;30.50;91.70
53782;DHT22;39692;53.114;7.060;2022-08-03T07:57:07;31.00;87.10
53782;DHT22;39692;53.114;7.060;2022-08-03T07:59:32;30.90;83.00
53782;DHT22;39692;53.114;7.060;2022-08-03T08:01:59;30.90;82.00
53782;DHT22;39692;53.114;7.060;2022-08-03T08:04:25;30.90;81.50
53782;DHT22;39692;53.114;7.060;2022-08-03T08:06:51;31.10;80.90
53782;DHT22;39692;53.114;7.060;2022-08-03T08:09:16;31.40;78.90
53782;DHT22;39692;53.114;7.060;2022-08-03T08:11:42;31.70;76.50
53782;DHT22;39692;53.114;7.060;2022-08-03T08:14:08;32.10;74.90
53782;DHT22;39692;53.114;7.060;2022-08-03T08:16:34;32.20;73.20
53782;DHT22;39692;53.114;7.060;2022-08-03T08:18:59;32.50;72.30
53782;DHT22;39692;53.114;7.060;2022-08-03T08:21:26;32.50;71.00
53782;DHT22;39692;53.114;7.060;2022-08-03T08:23:52;32.50;70.70
53782;DHT22;39692;53.114;7.060;2022-08-03T08:26:18;32.50;70.10
53782;DHT22;39692;53.114;7.060;2022-08-03T08:28:43;32.30;69.10
53782;DHT22;39692;53.114;7.060;2022-08-03T08:31:09;32.30;69.90
53782;DHT22;39692;53.114;7.060;2022-08-03T08:33:35;32.80;69.10
53782;DHT22;39692;53.114;7.060;2022-08-03T08:36:03;33.30;68.50
53782;DHT22;39692;53.114;7.060;2022-08-03T08:38:28;33.90;66.30
53782;DHT22;39692;53.114;7.060;2022-08-03T08:40:55;34.50;64.60
53782;DHT22;39692;53.114;7.060;2022-08-03T08:43:21;35.10;63.10
53782;DHT22;39692;53.114;7.060;2022-08-03T08:45:49;35.40;61.10
53782;DHT22;39692;53.114;7.060;2022-08-03T08:48:21;35.30;60.00
53782;DHT22;39692;53.114;7.060;2022-08-03T08:50:47;34.80;59.90
53782;DHT22;39692;53.114;7.060;2022-08-03T08:53:17;34.10;60.90
53782;DHT22;39692;53.114;7.060;2022-08-03T08:55:45;33.20;61.90
53782;DHT22;39692;53.114;7.060;2022-08-03T08:58:13;32.60;63.30
53782;DHT22;39692;53.114;7.060;2022-08-03T09:00:43;32.10;64.60
53782;DHT22;39692;53.114;7.060;2022-08-03T09:03:11;32.40;65.00
53782;DHT22;39692;53.114;7.060;2022-08-03T09:05:41;32.40;65.40
53782;DHT22;39692;53.114;7.060;2022-08-03T09:08:07;32.40;64.80
53782;DHT22;39692;53.114;7.060;2022-08-03T09:10:33;32.60;65.20
53782;DHT22;39692;53.114;7.060;2022-08-03T09:12:59;32.90;64.20
53782;DHT22;39692;53.114;7.060;2022-08-03T09:15:27;32.90;63.60
53782;DHT22;39692;53.114;7.060;2022-08-03T09:18:00;32.40;64.40
53782;DHT22;39692;53.114;7.060;2022-08-03T09:20:29;32.40;65.20
53782;DHT22;39692;53.114;7.060;2022-08-03T09:25:33;33.30;63.90
53782;DHT22;39692;53.114;7.060;2022-08-03T09:30:38;33.70;62.40
53782;DHT22;39692;53.114;7.060;2022-08-03T09:33:06;33.60;62.70
53782;DHT22;39692;53.114;7.060;2022-08-03T09:35:33;33.70;61.90
53782;DHT22;39692;53.114;7.060;2022-08-03T09:38:20;33.50;61.60
53782;DHT22;39692;53.114;7.060;2022-08-03T09:40:51;33.50;62.10
53782;DHT22;39692;53.114;7.060;2022-08-03T09:43:17;33.50;61.70
53782;DHT22;39692;53.114;7.060;2022-08-03T09:45:43;33.60;62.00
53782;DHT22;39692;53.114;7.060;2022-08-03T09:48:26;33.90;61.70
53782;DHT22;39692;53.114;7.060;2022-08-03T09:51:04;34.40;60.80
53782;DHT22;39692;53.114;7.060;2022-08-03T09:53:30;34.50;60.40
53782;DHT22;39692;53.114;7.060;2022-08-03T09:55:57;34.50;60.70
53782;DHT22;39692;53.114;7.060;2022-08-03T09:58:24;34.60;60.80
53782;DHT22;39692;53.114;7.060;2022-08-03T10:01:01;35.00;59.10
53782;DHT22;39692;53.114;7.060;2022-08-03T10:03:35;35.20;58.80
53782;DHT22;39692;53.114;7.060;2022-08-03T10:06:18;35.20;58.30
53782;DHT22;39692;53.114;7.060;2022-08-03T10:09:06;35.00;57.70
53782;DHT22;39692;53.114;7.060;2022-08-03T10:11:32;34.30;58.70
53782;DHT22;39692;53.114;7.060;2022-08-03T10:14:01;34.20;60.40
53782;DHT22;39692;53.114;7.060;2022-08-03T10:16:32;34.20;60.10
53782;DHT22;39692;53.114;7.060;2022-08-03T10:18:58;34.40;59.10
53782;DHT22;39692;53.114;7.060;2022-08-03T10:21:25;34.70;59.20
53782;DHT22;39692;53.114;7.060;2022-08-03T10:23:54;34.70;59.20
53782;DHT22;39692;53.114;7.060;2022-08-03T10:26:21;34.90;58.50
53782;DHT22;39692;53.114;7.060;2022-08-03T10:28:52;34.80;58.00
53782;DHT22;39692;53.114;7.060;2022-08-03T10:31:19;35.00;57.60
53782;DHT22;39692;53.114;7.060;2022-08-03T10:33:49;35.00;57.90
53782;DHT22;39692;53.114;7.060;2022-08-03T10:36:15;34.90;58.30
53782;DHT22;39692;53.114;7.060;2022-08-03T10:38:49;35.10;57.80
53782;DHT22;39692;53.114;7.060;2022-08-03T10:41:20;35.20;57.70
53782;DHT22;39692;53.114;7.060;2022-08-03T10:44:04;35.30;57.30
53782;DHT22;39692;53.114;7.060;2022-08-03T10:46:32;35.00;55.70
53782;DHT22;39692;53.114;7.060;2022-08-03T10:48:59;34.80;58.20
53782;DHT22;39692;53.114;7.060;2022-08-03T10:51:26;34.90;57.80
53782;DHT22;39692;53.114;7.060;2022-08-03T10:53:57;35.10;56.50
53782;DHT22;39692;53.114;7.060;2022-08-03T11:02:10;34.80;56.60
53782;DHT22;39692;53.114;7.060;2022-08-03T11:04:38;34.70;56.30
53782;DHT22;39692;53.114;7.060;2022-08-03T11:07:20;34.50;56.80
53782;DHT22;39692;53.114;7.060;2022-08-03T11:09:55;34.60;57.10
53782;DHT22;39692;53.114;7.060;2022-08-03T11:12:29;34.80;55.70
53782;DHT22;39692;53.114;7.060;2022-08-03T11:14:56;34.60;57.50
53782;DHT22;39692;53.114;7.060;2022-08-03T11:17:22;34.80;57.00
53782;DHT22;39692;53.114;7.060;2022-08-03T11:19:49;35.20;56.00
53782;DHT22;39692;53.114;7.060;2022-08-03T11:22:17;35.70;55.80
53782;DHT22;39692;53.114;7.060;2022-08-03T11:40:43;37.30;51.50
53782;DHT22;39692;53.114;7.060;2022-08-03T11:46:05;36.60;51.40
53782;DHT22;39692;53.114;7.060;2022-08-03T11:48:45;36.30;52.90
53782;DHT22;39692;53.114;7.060;2022-08-03T11:51:28;36.00;53.30
53782;DHT22;39692;53.114;7.060;2022-08-03T11:53:55;36.10;51.50
53782;DHT22;39692;53.114;7.060;2022-08-03T11:56:22;36.20;52.20
53782;DHT22;39692;53.114;7.060;2022-08-03T11:58:49;36.10;52.00
53782;DHT22;39692;53.114;7.060;2022-08-03T12:01:18;36.00;52.50
53782;DHT22;39692;53.114;7.060;2022-08-03T12:03:44;36.00;52.30
53782;DHT22;39692;53.114;7.060;2022-08-03T12:06:11;35.80;52.40
53782;DHT22;39692;53.114;7.060;2022-08-03T12:08:38;35.80;52.60
53782;DHT22;39692;53.114;7.060;2022-08-03T12:11:06;36.00;53.10
53782;DHT22;39692;53.114;7.060;2022-08-03T12:13:37;36.10;52.50
53782;DHT22;39692;53.114;7.060;2022-08-03T12:16:04;36.30;51.40
53782;DHT22;39692;53.114;7.060;2022-08-03T12:18:29;36.50;52.20
53782;DHT22;39692;53.114;7.060;2022-08-03T12:21:09;35.80;51.60
53782;DHT22;39692;53.114;7.060;2022-08-03T12:23:36;35.40;52.40
53782;DHT22;39692;53.114;7.060;2022-08-03T12:26:05;35.10;52.80
53782;DHT22;39692;53.114;7.060;2022-08-03T12:28:31;35.10;53.20
53782;DHT22;39692;53.114;7.060;2022-08-03T12:31:06;35.30;52.10
53782;DHT22;39692;53.114;7.060;2022-08-03T12:33:59;35.20;51.50
53782;DHT22;39692;53.114;7.060;2022-08-03T12:36:28;35.10;52.50
53782;DHT22;39692;53.114;7.060;2022-08-03T12:39:04;35.00;52.30
53782;DHT22;39692;53.114;7.060;2022-08-03T12:41:35;35.20;51.80
53782;DHT22;39692;53.114;7.060;2022-08-03T12:44:03;35.20;51.80
53782;DHT22;39692;53.114;7.060;2022-08-03T12:46:38;34.90;51.70
53782;DHT22;39692;53.114;7.060;2022-08-03T12:54:07;34.40;52.60
53782;DHT22;39692;53.114;7.060;2022-08-03T12:56:33;34.30;52.20
53782;DHT22;39692;53.114;7.060;2022-08-03T12:59:00;34.10;52.70
53782;DHT22;39692;53.114;7.060;2022-08-03T13:01:26;33.80;53.10
53782;DHT22;39692;53.114;7.060;2022-08-03T13:04:00;33.40;53.00
53782;DHT22;39692;53.114;7.060;2022-08-03T13:06:26;33.10;53.80
53782;DHT22;39692;53.114;7.060;2022-08-03T13:09:02;33.00;54.70
53782;DHT22;39692;53.114;7.060;2022-08-03T13:11:27;33.00;55.00
53782;DHT22;39692;53.114;7.060;2022-08-03T13:13:54;32.80;54.10
53782;DHT22;39692;53.114;7.060;2022-08-03T13:16:21;32.60;53.80
53782;DHT22;39692;53.114;7.060;2022-08-03T13:18:50;32.50;54.80
53782;DHT22;39692;53.114;7.060;2022-08-03T13:21:18;32.50;54.70
53782;DHT22;39692;53.114;7.060;2022-08-03T13:23:45;32.50;55.50
53782;DHT22;39692;53.114;7.060;2022-08-03T13:26:11;32.20;55.10
53782;DHT22;39692;53.114;7.060;2022-08-03T13:28:37;32.10;56.00
53782;DHT22;39692;53.114;7.060;2022-08-03T13:31:04;31.80;56.60
53782;DHT22;39692;53.114;7.060;2022-08-03T13:33:29;31.70;56.30
53782;DHT22;39692;53.114;7.060;2022-08-03T13:35:55;31.60;54.90
53782;DHT22;39692;53.114;7.060;2022-08-03T13:38:21;31.50;54.80
53782;DHT22;39692;53.114;7.060;2022-08-03T13:40:46;31.40;56.10
53782;DHT22;39692;53.114;7.060;2022-08-03T13:43:12;31.50;55.70
53782;DHT22;39692;53.114;7.060;2022-08-03T13:45:38;31.70;55.70
53782;DHT22;39692;53.114;7.060;2022-08-03T13:48:04;31.70;55.90
53782;DHT22;39692;53.114;7.060;2022-08-03T13:50:29;31.60;55.50
53782;DHT22;39692;53.114;7.060;2022-08-03T13:52:58;31.50;55.80
53782;DHT22;39692;53.114;7.060;2022-08-03T13:55:24;31.40;56.70
53782;DHT22;39692;53.114;7.060;2022-08-03T13:57:50;31.50;56.10
53782;DHT22;39692;53.114;7.060;2022-08-03T14:00:16;31.60;55.70
53782;DHT22;39692;53.114;7.060;2022-08-03T14:02:43;31.60;54.80
53782;DHT22;39692;53.114;7.060;2022-08-03T14:05:08;31.50;54.80
53782;DHT22;39692;53.114;7.060;2022-08-03T14:07:34;31.40;54.70
53782;DHT22;39692;53.114;7.060;2022-08-03T14:10:00;31.40;54.20
53782;DHT22;39692;53.114;7.060;2022-08-03T14:12:26;31.40;53.20
53782;DHT22;39692;53.114;7.060;2022-08-03T14:14:52;31.50;52.70
53782;DHT22;39692;53.114;7.060;2022-08-03T14:17:18;31.50;52.00
53782;DHT22;39692;53.114;7.060;2022-08-03T14:19:44;31.70;51.60
53782;DHT22;39692;53.114;7.060;2022-08-03T14:22:09;31.70;50.90
53782;DHT22;39692;53.114;7.060;2022-08-03T14:24:35;31.60;51.40
53782;DHT22;39692;53.114;7.060;2022-08-03T14:27:01;31.50;51.40
53782;DHT22;39692;53.114;7.060;2022-08-03T14:29:26;31.50;51.40
53782;DHT22;39692;53.114;7.060;2022-08-03T14:31:52;31.40;51.90
53782;DHT22;39692;53.114;7.060;2022-08-03T14:34:18;31.40;51.70
53782;DHT22;39692;53.114;7.060;2022-08-03T14:36:43;31.50;52.50
53782;DHT22;39692;53.114;7.060;2022-08-03T14:39:11;31.60;52.40
53782;DHT22;39692;53.114;7.060;2022-08-03T14:41:37;31.50;52.60
53782;DHT22;39692;53.114;7.060;2022-08-03T14:44:03;31.50;53.10
53782;DHT22;39692;53.114;7.060;2022-08-03T14:46:29;31.30;53.70
53782;DHT22;39692;53.114;7.060;2022-08-03T14:48:55;31.10;53.90
53782;DHT22;39692;53.114;7.060;2022-08-03T14:51:21;30.90;54.40
53782;DHT22;39692;53.114;7.060;2022-08-03T14:53:47;30.90;56.10
53782;DHT22;39692;53.114;7.060;2022-08-03T14:56:12;30.90;55.10
53782;DHT22;39692;53.114;7.060;2022-08-03T14:58:38;31.00;56.20
53782;DHT22;39692;53.114;7.060;2022-08-03T15:01:04;30.90;56.30
53782;DHT22;39692;53.114;7.060;2022-08-03T15:03:30;31.00;55.80
53782;DHT22;39692;53.114;7.060;2022-08-03T15:05:56;31.00;55.70
53782;DHT22;39692;53.114;7.060;2022-08-03T15:08:23;31.00;55.70
53782;DHT22;39692;53.114;7.060;2022-08-03T15:10:49;30.80;56.30
53782;DHT22;39692;53.114;7.060;2022-08-03T15:13:16;30.70;57.30
53782;DHT22;39692;53.114;7.060;2022-08-03T15:15:42;30.70;57.30
53782;DHT22;39692;53.114;7.060;2022-08-03T15:18:08;30.80;56.90
53782;DHT22;39692;53.114;7.060;2022-08-03T15:20:33;30.70;57.10
53782;DHT22;39692;53.114;7.060;2022-08-03T15:22:59;30.60;56.90
53782;DHT22;39692;53.114;7.060;2022-08-03T15:25:25;30.70;57.30
53782;DHT22;39692;53.114;7.060;2022-08-03T15:27:52;30.70;57.70
53782;DHT22;39692;53.114;7.060;2022-08-03T15:30:17;30.60;57.50
53782;DHT22;39692;53.114;7.060;2022-08-03T15:32:43;30.60;58.10
53782;DHT22;39692;53.114;7.060;2022-08-03T15:35:09;30.40;57.50
53782;DHT22;39692;53.114;7.060;2022-08-03T15:37:34;30.30;57.80
53782;DHT22;39692;53.114;7.060;2022-08-03T15:40:00;30.20;58.20
53782;DHT22;39692;53.114;7.060;2022-08-03T15:42:28;30.10;58.90
53782;DHT22;39692;53.114;7.060;2022-08-03T15:44:54;29.90;59.70
53782;DHT22;39692;53.114;7.060;2022-08-03T15:47:19;29.80;59.20
53782;DHT22;39692;53.114;7.060;2022-08-03T15:49:45;29.80;59.60
53782;DHT22;39692;53.114;7.060;2022-08-03T15:52:10;29.80;59.60
53782;DHT22;39692;53.114;7.060;2022-08-03T15:54:36;29.90;59.10
53782;DHT22;39692;53.114;7.060;2022-08-03T15:57:02;30.00;58.60
53782;DHT22;39692;53.114;7.060;2022-08-03T15:59:28;30.00;58.70
53782;DHT22;39692;53.114;7.060;2022-08-03T16:01:53;30.00;58.50
53782;DHT22;39692;53.114;7.060;2022-08-03T16:04:21;30.10;58.10
53782;DHT22;39692;53.114;7.060;2022-08-03T16:06:47;30.00;58.30
53782;DHT22;39692;53.114;7.060;2022-08-03T16:09:13;30.00;59.00
53782;DHT22;39692;53.114;7.060;2022-08-03T16:11:39;29.90;58.40
53782;DHT22;39692;53.114;7.060;2022-08-03T16:14:05;29.90;58.60
53782;DHT22;39692;53.114;7.060;2022-08-03T16:16:30;29.80;57.80
53782;DHT22;39692;53.114;7.060;2022-08-03T16:18:56;29.70;57.20
53782;DHT22;39692;53.114;7.060;2022-08-03T16:21:22;29.60;57.10
53782;DHT22;39692;53.114;7.060;2022-08-03T16:23:48;29.60;56.90